This is the latest recevied weather packets stored in our database for station/object DL0BB-10. If no packets are shown the sender has not sent any weather packets the latest 10 day(s).
| Time | Temp. | Humidity | Pressure | Rain* | Wind** | Luminosity | Snow |
|---|---|---|---|---|---|---|---|
| 1787883280 | 26.11° C | 41% | 1011 hPa | - | - | - | - |
| 1787882379 | 26.67° C | 40% | 1011.5 hPa | - | - | - | - |
| 1787881479 | 26.11° C | 41% | 1011.8 hPa | - | - | - | - |
| 1787880578 | 26.11° C | 41% | 1011.8 hPa | - | - | - | - |
| 1787879678 | 26.11° C | 41% | 1011.8 hPa | - | - | - | - |
| 1787878778 | 26.67° C | 40% | 1011.6 hPa | - | - | - | - |
| 1787877877 | 26.11° C | 41% | 1011.4 hPa | - | - | - | - |
| 1787876977 | 26.11° C | 41% | 1011.6 hPa | - | - | - | - |
| 1787876077 | 26.67° C | 41% | 1011.9 hPa | - | - | - | - |
| 1787875176 | 27.22° C | 39% | 1011.6 hPa | - | - | - | - |
| 1787874275 | 26.11° C | 42% | 1011.6 hPa | - | - | - | - |
| 1787873375 | 26.11° C | 41% | 1011.6 hPa | - | - | - | - |
| 1787872474 | 26.67° C | 41% | 1011.9 hPa | - | - | - | - |
| 1787871574 | 27.22° C | 40% | 1010.8 hPa | - | - | - | - |
| 1787870674 | 26.11° C | 42% | 1009.9 hPa | - | - | - | - |
| 1787869774 | 26.67° C | 41% | 1009.4 hPa | - | - | - | - |
| 1787868873 | 27.22° C | 40% | 1009.4 hPa | - | - | - | - |
| 1787867973 | 27.22° C | 40% | 1009.6 hPa | - | - | - | - |
| 1787867072 | 26.67° C | 41% | 1009.7 hPa | - | - | - | - |
| 1787866172 | 26.67° C | 41% | 1009.6 hPa | - | - | - | - |
| 1787865272 | 27.22° C | 40% | 1009.4 hPa | - | - | - | - |
| 1787864371 | 27.22° C | 41% | 1009.4 hPa | - | - | - | - |
| 1787863476 | 26.67° C | 41% | 1009.5 hPa | - | - | - | - |
| 1787862576 | 26.67° C | 41% | 1009.4 hPa | - | - | - | - |
| 1787861676 | 27.22° C | 40% | 1009.4 hPa | - | - | - | - |
* Rain since midnight (hover to see other rain measurements)
** Current wind speed in m/s (hover to see current wind gust speed)